Alta, Iowa
Current Conditions -  °F | °C
As of 10:55 PM on Wednesday 22 Oct 2014 (Local Time) from KSLB Reporting Station
Overcast Overcast  
Wind Chill: 14°   Ceiling: 6500
Heat Index: 14°   Visibility: 10mi
Dew Point: 13°   Wind: 14mph
Humidity: 94%   Direction: 160°SSE
Pressure: 30.06"   Gusts: NA
Location:  42.67°N, 95.29°W
Report Text: KSLB 230355Z AUTO 16012KT 10SM SCT004 SCT030 OVC065 14/13 A3006 RMK AO2
Loading
Personal Weather Stations






























Interactive Weather Map
Tropical Storm Tracking
New forecast layout! Learn more

10-Day Weather Forecast

Advertisements
Track Severe Weather on mobile